Jenson, Kentucky
Current Conditions -  °F | °C
As of 11:15 AM on Thursday 23 Oct 2014 (Local Time) from K1A6 Reporting Station
Broken Clouds Broken Clouds  
Wind Chill: 51°   Ceiling: 2600
Heat Index: 51°   Visibility: 10mi
Dew Point: 39°   Wind: 0mph
Humidity: 65%   Direction: NA
Pressure: 30.24"   Gusts: NA
Location:  36.7417°N, 83.6911°W
Report Text: K1A6 231515Z AUTO 00000KT 10SM BKN026 10/04 A3024 RMK AO2 T01040040
Loading
Personal Weather Stations






























Interactive Weather Map
Tropical Storm Tracking
New forecast layout! Learn more

10-Day Weather Forecast

Advertisements
Track Severe Weather on mobile